createdAt,value
2018-07-10T00:00:31.807Z,18.92
2018-07-10T00:03:45.447Z,18.96
2018-07-10T00:07:13.278Z,18.93
2018-07-10T00:09:58.218Z,18.87
2018-07-10T00:12:26.722Z,18.86
2018-07-10T00:14:55.330Z,18.84
2018-07-10T00:17:23.845Z,18.84
2018-07-10T00:19:52.746Z,18.80
2018-07-10T00:22:21.321Z,18.77
2018-07-10T00:24:50.157Z,18.78
2018-07-10T00:27:18.607Z,18.78
2018-07-10T00:29:47.342Z,18.72
2018-07-10T00:32:15.859Z,18.68
2018-07-10T00:34:44.625Z,18.67
2018-07-10T00:37:13.421Z,18.68
2018-07-10T00:39:42.157Z,18.68
2018-07-10T00:42:10.925Z,18.69
2018-07-10T00:44:39.717Z,18.69
2018-07-10T00:47:08.521Z,18.66
2018-07-10T00:49:37.273Z,18.64
2018-07-10T00:52:05.789Z,18.59
2018-07-10T00:54:34.513Z,18.51
2018-07-10T00:57:03.345Z,18.43
2018-07-10T00:59:31.869Z,18.40
2018-07-10T01:02:00.820Z,18.40
2018-07-10T01:04:29.830Z,18.34
2018-07-10T01:06:58.301Z,18.35
2018-07-10T01:09:27.021Z,18.39
2018-07-10T01:11:56.013Z,18.44
2018-07-10T01:14:24.526Z,18.46
2018-07-10T01:16:53.313Z,18.46
2018-07-10T01:19:22.117Z,18.44
2018-07-10T01:21:50.635Z,18.40
2018-07-10T01:24:19.552Z,18.44
2018-07-10T01:26:50.008Z,18.41
2018-07-10T01:29:24.505Z,18.44
2018-07-10T01:31:53.911Z,18.43
2018-07-10T01:34:22.922Z,18.40
2018-07-10T01:36:52.403Z,18.35
2018-07-10T01:39:21.247Z,18.28
2018-07-10T01:41:49.994Z,18.29
2018-07-10T01:44:18.558Z,18.27
2018-07-10T01:46:47.485Z,18.23
2018-07-10T01:49:16.030Z,18.24
2018-07-10T01:51:45.078Z,18.12
2018-07-10T01:54:14.462Z,18.07
2018-07-10T01:56:43.145Z,17.98
2018-07-10T01:59:11.744Z,17.90
2018-07-10T02:01:40.890Z,17.88
2018-07-10T02:04:09.814Z,17.86
2018-07-10T02:06:38.537Z,17.81
2018-07-10T02:09:07.896Z,17.75
2018-07-10T02:11:37.120Z,17.70
2018-07-10T02:14:05.695Z,17.64
2018-07-10T02:16:34.169Z,17.61
2018-07-10T02:19:03.685Z,17.58
2018-07-10T02:21:32.247Z,17.53
2018-07-10T02:24:01.446Z,17.45
2018-07-10T02:26:30.341Z,17.40
2018-07-10T02:28:58.941Z,17.40
2018-07-10T02:31:27.438Z,17.42
2018-07-10T02:33:56.392Z,17.41
2018-07-10T02:36:25.309Z,17.41
2018-07-10T02:38:56.544Z,17.42
2018-07-10T02:41:25.135Z,17.46
2018-07-10T02:44:05.329Z,17.54
2018-07-10T02:46:34.965Z,17.58
2018-07-10T02:49:19.120Z,17.59
2018-07-10T02:51:54.274Z,17.59
2018-07-10T02:54:25.056Z,17.44
2018-07-10T02:56:54.885Z,17.58
2018-07-10T02:59:23.846Z,17.51
2018-07-10T03:01:52.552Z,17.44
2018-07-10T03:04:21.933Z,17.38
2018-07-10T03:06:50.897Z,17.37
2018-07-10T03:09:19.881Z,17.37
2018-07-10T03:11:48.832Z,17.38
2018-07-10T03:14:17.751Z,17.38
2018-07-10T03:16:46.973Z,17.36
2018-07-10T03:19:15.523Z,17.37
2018-07-10T03:21:44.401Z,17.36
2018-07-10T03:24:13.209Z,17.38
2018-07-10T03:26:41.781Z,17.37
2018-07-10T03:29:10.437Z,17.35
2018-07-10T03:31:39.697Z,17.32
2018-07-10T03:34:08.253Z,17.31
2018-07-10T03:36:36.794Z,17.30
2018-07-10T03:39:05.961Z,17.29
2018-07-10T03:41:35.437Z,17.29
2018-07-10T03:44:03.957Z,17.29
2018-07-10T03:46:32.905Z,17.26
2018-07-10T03:49:01.938Z,17.25
2018-07-10T03:51:30.483Z,17.22
2018-07-10T03:53:59.582Z,17.19
2018-07-10T03:56:28.905Z,17.21
2018-07-10T03:58:59.019Z,17.23
2018-07-10T04:01:34.193Z,17.25
2018-07-10T04:04:03.338Z,17.25
2018-07-10T04:06:32.119Z,17.25
2018-07-10T04:09:01.867Z,17.23
2018-07-10T04:11:30.387Z,17.23
2018-07-10T04:13:59.473Z,17.26
2018-07-10T04:16:28.972Z,17.29
2018-07-10T04:18:58.113Z,17.33
2018-07-10T04:21:28.430Z,17.38
2018-07-10T04:24:10.564Z,17.43
2018-07-10T04:26:44.975Z,17.49
2018-07-10T04:29:19.303Z,17.52
2018-07-10T04:31:56.158Z,17.51
2018-07-10T04:34:25.497Z,17.53
2018-07-10T04:37:14.614Z,17.55
2018-07-10T04:39:44.640Z,17.57
2018-07-10T04:42:36.047Z,17.57
2018-07-10T04:45:09.425Z,17.61
2018-07-10T04:47:57.157Z,17.65
2018-07-10T04:50:39.194Z,17.70
2018-07-10T04:53:15.405Z,17.74
2018-07-10T04:55:44.566Z,17.77
2018-07-10T04:58:19.345Z,17.78
2018-07-10T05:00:56.885Z,17.79
2018-07-10T05:03:26.931Z,17.42
2018-07-10T05:05:55.538Z,17.86
2018-07-10T05:08:25.114Z,17.87
2018-07-10T05:10:54.937Z,17.90
2018-07-10T05:13:24.890Z,17.93
2018-07-10T05:16:03.981Z,17.96
2018-07-10T05:18:33.429Z,18.00
2018-07-10T05:21:08.755Z,18.03
2018-07-10T05:23:37.361Z,18.06
2018-07-10T05:26:05.914Z,18.06
2018-07-10T05:28:34.873Z,18.11
2018-07-10T05:31:04.426Z,18.18
2018-07-10T05:33:33.621Z,18.26
2018-07-10T05:36:02.458Z,18.30
2018-07-10T05:38:38.147Z,18.35
2018-07-10T05:41:07.461Z,18.38
2018-07-10T05:43:40.887Z,18.46
2018-07-10T05:46:09.449Z,18.55
2018-07-10T05:48:37.985Z,18.50
2018-07-10T05:51:07.229Z,18.72
2018-07-10T05:53:35.953Z,18.81
2018-07-10T05:56:04.486Z,18.91
2018-07-10T05:58:33.728Z,18.97
2018-07-10T06:01:02.246Z,19.01
2018-07-10T06:03:30.762Z,19.09
2018-07-10T06:05:59.805Z,19.17
2018-07-10T06:08:28.466Z,19.27
2018-07-10T06:10:57.925Z,19.36
2018-07-10T06:13:26.785Z,19.44
2018-07-10T06:15:55.342Z,19.53
2018-07-10T06:18:24.226Z,19.59
2018-07-10T06:20:52.911Z,19.63
2018-07-10T06:23:21.565Z,19.68
2018-07-10T06:25:50.558Z,19.70
2018-07-10T06:28:28.488Z,19.77
2018-07-10T06:31:01.717Z,19.82
2018-07-10T06:33:30.351Z,19.88
2018-07-10T06:36:34.646Z,19.95
2018-07-10T06:39:11.297Z,20.06
2018-07-10T06:41:48.201Z,20.14
2018-07-10T06:44:18.981Z,20.19
2018-07-10T06:46:51.249Z,20.25
2018-07-10T06:49:28.077Z,20.32
2018-07-10T06:52:15.471Z,20.45
2018-07-10T06:55:16.049Z,20.58
2018-07-10T06:57:59.693Z,20.69
2018-07-10T07:00:28.797Z,20.83
2018-07-10T07:02:58.013Z,20.99
2018-07-10T07:05:26.597Z,21.11
2018-07-10T07:07:55.688Z,21.21
2018-07-10T07:10:25.476Z,21.26
2018-07-10T07:12:54.041Z,21.36
2018-07-10T07:15:22.820Z,21.52
2018-07-10T07:17:52.818Z,21.68
2018-07-10T07:20:22.974Z,21.87
2018-07-10T07:22:52.010Z,22.05
2018-07-10T07:25:20.717Z,22.26
2018-07-10T07:27:49.417Z,22.48
2018-07-10T07:30:18.022Z,22.62
2018-07-10T07:32:46.558Z,22.73
2018-07-10T07:35:15.569Z,22.93
2018-07-10T07:37:44.577Z,23.18
2018-07-10T07:40:13.429Z,23.49
2018-07-10T07:42:42.701Z,23.89
2018-07-10T07:45:11.873Z,24.53
2018-07-10T07:47:40.441Z,25.31
2018-07-10T07:50:09.677Z,26.06
2018-07-10T07:52:38.545Z,26.60
2018-07-10T07:55:07.005Z,27.16
2018-07-10T07:57:35.578Z,27.72
2018-07-10T08:00:04.198Z,28.24
2018-07-10T08:02:32.707Z,28.35
2018-07-10T08:05:01.276Z,28.37
2018-07-10T08:07:30.193Z,28.48
2018-07-10T08:09:59.210Z,28.75
2018-07-10T08:12:31.102Z,28.84
2018-07-10T08:15:03.554Z,28.97
2018-07-10T08:17:35.460Z,28.94
2018-07-10T08:20:05.319Z,29.07
2018-07-10T08:22:34.458Z,29.23
2018-07-10T08:25:03.679Z,29.33
2018-07-10T08:27:32.890Z,29.65
2018-07-10T08:30:01.614Z,29.87
2018-07-10T08:32:30.845Z,30.11
2018-07-10T08:34:59.392Z,30.39
2018-07-10T08:37:28.045Z,30.74
2018-07-10T08:39:56.789Z,31.01
2018-07-10T08:42:25.309Z,31.26
2018-07-10T08:44:54.773Z,31.47
2018-07-10T08:47:23.693Z,31.77
2018-07-10T08:49:52.363Z,31.90
2018-07-10T08:52:21.002Z,32.02
2018-07-10T08:54:49.707Z,31.93
2018-07-10T08:57:18.333Z,32.05
2018-07-10T08:59:47.408Z,32.23
2018-07-10T09:02:16.118Z,32.55
2018-07-10T09:04:45.466Z,32.71
2018-07-10T09:07:14.032Z,32.65
2018-07-10T09:09:42.582Z,32.73
2018-07-10T09:12:11.412Z,32.91
2018-07-10T09:14:40.119Z,33.06
2018-07-10T09:17:08.951Z,33.10
2018-07-10T09:19:39.216Z,33.28
2018-07-10T09:22:10.871Z,33.35
2018-07-10T09:24:57.086Z,33.65
2018-07-10T09:27:25.630Z,33.55
2018-07-10T09:29:54.561Z,33.11
2018-07-10T09:32:28.367Z,32.60
2018-07-10T09:34:58.670Z,32.48
2018-07-10T09:37:35.390Z,32.75
2018-07-10T09:40:09.789Z,33.13
2018-07-10T09:43:12.128Z,33.46
2018-07-10T09:45:40.944Z,33.64
2018-07-10T09:48:10.859Z,33.75
2018-07-10T09:50:40.209Z,33.93
2018-07-10T09:53:09.039Z,34.15
2018-07-10T09:55:37.520Z,34.14
2018-07-10T09:58:06.861Z,34.04
2018-07-10T10:00:41.185Z,33.75
2018-07-10T10:03:10.065Z,33.67
2018-07-10T10:05:43.727Z,33.82
2018-07-10T10:08:12.753Z,34.16
2018-07-10T10:10:42.006Z,34.16
2018-07-10T10:13:10.790Z,34.13
2018-07-10T10:15:40.357Z,34.01
2018-07-10T10:18:10.219Z,34.13
2018-07-10T10:20:40.614Z,34.27
2018-07-10T10:23:11.245Z,34.31
2018-07-10T10:25:43.871Z,34.42
2018-07-10T10:28:13.172Z,34.54
2018-07-10T10:30:41.722Z,34.65
2018-07-10T10:33:11.586Z,34.77
2018-07-10T10:35:41.389Z,34.70
2018-07-10T10:38:10.571Z,34.57
2018-07-10T10:40:40.414Z,34.46
2018-07-10T10:43:11.423Z,34.53
2018-07-10T10:45:42.817Z,34.44
2018-07-10T10:48:13.558Z,34.53
2018-07-10T10:50:44.217Z,34.85
2018-07-10T10:53:13.114Z,35.00
2018-07-10T10:55:41.811Z,35.10
2018-07-10T10:58:10.554Z,34.90
2018-07-10T11:00:41.282Z,34.31
2018-07-10T11:03:10.750Z,34.09
2018-07-10T11:05:40.526Z,33.88
2018-07-10T11:08:09.956Z,33.65
2018-07-10T11:10:39.373Z,33.64
2018-07-10T11:13:08.124Z,33.86
2018-07-10T11:15:42.417Z,34.09
2018-07-10T11:18:13.281Z,34.15
2018-07-10T11:20:51.921Z,34.23
2018-07-10T11:23:32.173Z,34.16
2018-07-10T11:26:08.509Z,34.29
2018-07-10T11:28:37.123Z,34.36
2018-07-10T11:31:05.822Z,34.11
2018-07-10T11:33:34.789Z,33.69
2018-07-10T11:36:03.953Z,33.67
2018-07-10T11:38:32.761Z,33.72
2018-07-10T11:41:01.395Z,33.85
2018-07-10T11:43:30.263Z,34.06
2018-07-10T11:45:58.769Z,33.86
2018-07-10T11:48:28.242Z,33.76
2018-07-10T11:50:57.527Z,33.82
2018-07-10T11:53:26.222Z,33.76
2018-07-10T11:55:54.770Z,33.73
2018-07-10T11:58:23.595Z,33.61
2018-07-10T12:00:52.113Z,33.55
2018-07-10T12:03:21.183Z,33.18
2018-07-10T12:05:49.773Z,32.58
2018-07-10T12:08:18.850Z,32.82
2018-07-10T12:11:20.866Z,32.93
2018-07-10T12:13:49.385Z,33.12
2018-07-10T12:16:18.033Z,33.25
2018-07-10T12:18:47.796Z,33.15
2018-07-10T12:21:18.065Z,33.03
2018-07-10T12:23:46.896Z,33.18
2018-07-10T12:26:15.982Z,33.26
2018-07-10T12:28:44.560Z,33.09
2018-07-10T12:31:13.553Z,32.91
2018-07-10T12:33:48.813Z,32.83
2018-07-10T12:36:17.693Z,32.94
2018-07-10T12:38:46.221Z,33.17
2018-07-10T12:41:15.521Z,33.38
2018-07-10T12:43:44.365Z,33.40
2018-07-10T12:46:13.163Z,33.48
2018-07-10T12:48:41.975Z,33.18
2018-07-10T12:51:11.020Z,33.30
2018-07-10T12:53:40.018Z,33.79
2018-07-10T12:56:09.188Z,33.98
2018-07-10T12:58:41.151Z,34.17
2018-07-10T13:01:09.857Z,34.35
2018-07-10T13:03:39.206Z,34.75
2018-07-10T13:06:08.035Z,35.08
2018-07-10T13:08:36.754Z,35.29
2018-07-10T13:11:06.852Z,34.86
2018-07-10T13:13:35.370Z,34.67
2018-07-10T13:16:04.273Z,35.17
2018-07-10T13:18:34.225Z,35.44
2018-07-10T13:21:02.738Z,35.67
2018-07-10T13:23:31.341Z,35.87
2018-07-10T13:26:00.090Z,35.78
2018-07-10T13:28:29.149Z,35.76
2018-07-10T13:30:58.150Z,35.89
2018-07-10T13:33:27.173Z,36.16
2018-07-10T13:35:55.709Z,36.15
2018-07-10T13:38:25.691Z,36.02
2018-07-10T13:40:58.127Z,35.99
2018-07-10T13:43:26.959Z,35.90
2018-07-10T13:45:55.835Z,36.02
2018-07-10T13:48:24.713Z,36.29
2018-07-10T13:50:53.662Z,36.00
2018-07-10T13:53:22.181Z,35.80
2018-07-10T13:55:51.490Z,35.75
2018-07-10T13:58:23.856Z,36.05
2018-07-10T14:01:01.053Z,36.17
2018-07-10T14:03:29.701Z,36.62
2018-07-10T14:05:58.273Z,36.79
2018-07-10T14:08:27.050Z,36.79
2018-07-10T14:10:55.717Z,37.00
2018-07-10T14:13:24.571Z,36.83
2018-07-10T14:15:53.433Z,37.08
2018-07-10T14:18:23.561Z,37.15
2018-07-10T14:20:54.353Z,37.31
2018-07-10T14:23:23.605Z,37.33
2018-07-10T14:25:52.682Z,37.20
2018-07-10T14:28:21.703Z,37.33
2018-07-10T14:30:50.821Z,37.13
2018-07-10T14:33:20.038Z,36.45
2018-07-10T14:35:48.605Z,36.29
2018-07-10T14:38:27.018Z,36.64
2018-07-10T14:40:56.914Z,36.88
2018-07-10T14:43:29.484Z,37.11
2018-07-10T14:46:06.958Z,37.44
2018-07-10T14:48:38.739Z,37.55
2018-07-10T14:51:07.644Z,37.68
2018-07-10T14:53:37.030Z,37.52
2018-07-10T14:56:05.601Z,37.38
2018-07-10T14:58:34.121Z,37.28
2018-07-10T15:01:03.036Z,37.29
2018-07-10T15:03:31.889Z,37.22
2018-07-10T15:06:00.369Z,37.02
2018-07-10T15:08:29.349Z,36.39
2018-07-10T15:10:58.258Z,36.61
2018-07-10T15:13:26.750Z,36.85
2018-07-10T15:16:04.161Z,37.28
2018-07-10T15:18:38.090Z,37.57
2018-07-10T15:21:07.023Z,37.47
2018-07-10T15:23:35.760Z,37.57
2018-07-10T15:26:04.317Z,37.76
2018-07-10T15:28:33.184Z,37.85
2018-07-10T15:31:02.518Z,38.11
2018-07-10T15:33:31.575Z,38.06
2018-07-10T15:36:00.301Z,37.98
2018-07-10T15:38:29.253Z,37.91
2018-07-10T15:40:57.797Z,37.80
2018-07-10T15:43:26.735Z,37.63
2018-07-10T15:45:56.075Z,37.71
2018-07-10T15:48:24.765Z,37.93
2018-07-10T15:50:53.296Z,38.00
2018-07-10T15:53:22.437Z,37.72
2018-07-10T15:55:51.021Z,37.47
2018-07-10T15:58:19.658Z,37.49
2018-07-10T16:00:48.518Z,37.67
2018-07-10T16:03:17.233Z,37.52
2018-07-10T16:05:46.061Z,37.50
2018-07-10T16:08:21.349Z,37.63
2018-07-10T16:10:52.686Z,37.55
2018-07-10T16:13:22.641Z,37.58
2018-07-10T16:15:54.881Z,37.49
2018-07-10T16:18:25.450Z,37.20
2018-07-10T16:20:58.704Z,36.94
2018-07-10T16:23:28.238Z,37.02
2018-07-10T16:26:31.287Z,37.13
2018-07-10T16:28:59.973Z,36.64
2018-07-10T16:31:28.559Z,36.47
2018-07-10T16:33:57.713Z,36.44
2018-07-10T16:36:26.417Z,36.64
2018-07-10T16:38:54.969Z,36.64
2018-07-10T16:41:28.789Z,36.40
2018-07-10T16:44:00.220Z,36.13
2018-07-10T16:46:28.791Z,35.97
2018-07-10T16:49:36.207Z,36.00
2018-07-10T16:52:12.773Z,36.13
2018-07-10T16:54:41.473Z,35.74
2018-07-10T16:57:10.085Z,35.30
2018-07-10T16:59:39.785Z,35.15
2018-07-10T17:02:08.370Z,34.97
2018-07-10T17:04:36.994Z,34.45
2018-07-10T17:07:05.650Z,33.78
2018-07-10T17:09:34.395Z,33.06
2018-07-10T17:12:02.906Z,32.29
2018-07-10T17:14:31.433Z,31.57
2018-07-10T17:17:00.131Z,30.97
2018-07-10T17:19:28.665Z,30.48
2018-07-10T17:21:57.302Z,30.00
2018-07-10T17:24:26.453Z,29.66
2018-07-10T17:26:55.367Z,29.20
2018-07-10T17:29:23.973Z,28.91
2018-07-10T17:31:52.535Z,28.56
2018-07-10T17:34:21.485Z,28.19
2018-07-10T17:36:50.014Z,27.89
2018-07-10T17:39:18.566Z,27.64
2018-07-10T17:41:47.779Z,27.45
2018-07-10T17:44:16.350Z,27.34
2018-07-10T17:46:45.042Z,27.09
2018-07-10T17:49:13.979Z,26.87
2018-07-10T17:51:42.544Z,26.77
2018-07-10T17:54:11.709Z,26.72
2018-07-10T17:56:40.504Z,26.64
2018-07-10T17:59:09.422Z,26.47
2018-07-10T18:01:38.694Z,26.32
2018-07-10T18:04:08.003Z,26.13
2018-07-10T18:06:36.977Z,26.04
2018-07-10T18:09:06.433Z,26.01
2018-07-10T18:11:35.410Z,26.00
2018-07-10T18:14:03.945Z,25.96
2018-07-10T18:16:35.366Z,25.85
2018-07-10T18:19:05.229Z,25.81
2018-07-10T18:21:35.217Z,25.80
2018-07-10T18:24:04.099Z,25.76
2018-07-10T18:26:32.625Z,25.71
2018-07-10T18:29:01.934Z,25.60
2018-07-10T18:31:30.638Z,25.52
2018-07-10T18:33:59.202Z,25.45
2018-07-10T18:36:27.832Z,25.38
2018-07-10T18:38:56.450Z,25.34
2018-07-10T18:41:24.982Z,25.33
2018-07-10T18:43:53.512Z,25.30
2018-07-10T18:46:22.177Z,25.28
2018-07-10T18:48:50.800Z,23.79
2018-07-10T18:51:20.770Z,25.14
2018-07-10T18:53:50.003Z,24.95
2018-07-10T18:56:18.605Z,25.04
2018-07-10T18:58:59.892Z,24.99
2018-07-10T19:02:35.628Z,24.95
2018-07-10T19:05:06.117Z,24.79
2018-07-10T19:07:37.485Z,24.72
2018-07-10T19:10:06.470Z,24.69
2018-07-10T19:12:35.077Z,24.63
2018-07-10T19:15:03.677Z,24.51
2018-07-10T19:17:33.280Z,24.41
2018-07-10T19:20:03.767Z,24.35
2018-07-10T19:22:44.966Z,24.25
2018-07-10T19:25:13.870Z,24.21
2018-07-10T19:27:44.225Z,24.18
2018-07-10T19:30:12.768Z,24.08
2018-07-10T19:32:41.387Z,23.98
2018-07-10T19:35:11.023Z,23.86
2018-07-10T19:37:40.154Z,23.71
2018-07-10T19:40:09.105Z,23.63
2018-07-10T19:42:40.369Z,23.58
2018-07-10T19:45:09.676Z,23.50
2018-07-10T19:47:39.505Z,23.40
2018-07-10T19:50:13.658Z,23.26
2018-07-10T19:52:45.967Z,23.19
2018-07-10T19:55:14.820Z,23.20
2018-07-10T19:58:14.164Z,23.18
2018-07-10T20:00:46.582Z,23.10
2018-07-10T20:03:27.184Z,23.01
2018-07-10T20:05:58.572Z,22.93
2018-07-10T20:08:27.247Z,22.88
2018-07-10T20:10:59.601Z,22.85
2018-07-10T20:13:48.255Z,22.82
2018-07-10T20:17:23.106Z,22.83
2018-07-10T20:19:58.803Z,22.78
2018-07-10T20:24:41.567Z,22.68
2018-07-10T20:27:16.489Z,22.50
2018-07-10T20:31:58.347Z,22.42
2018-07-10T20:34:32.257Z,22.16
2018-07-10T20:37:00.897Z,22.03
2018-07-10T20:39:36.477Z,21.96
2018-07-10T20:42:05.461Z,21.85
2018-07-10T20:45:06.690Z,21.72
2018-07-10T20:47:47.990Z,21.63
2018-07-10T20:50:21.348Z,21.61
2018-07-10T20:52:53.544Z,21.54
2018-07-10T20:55:24.537Z,21.53
2018-07-10T20:57:58.441Z,21.55
2018-07-10T21:00:27.157Z,21.48
2018-07-10T21:04:01.733Z,21.44
2018-07-10T21:06:38.053Z,21.35
2018-07-10T21:09:13.769Z,21.24
2018-07-10T21:12:06.628Z,21.15
2018-07-10T21:14:40.496Z,21.06
2018-07-10T21:17:12.830Z,21.02
2018-07-10T21:20:01.750Z,21.06
2018-07-10T21:24:45.349Z,21.10
2018-07-10T21:27:20.310Z,21.12
2018-07-10T21:29:54.109Z,21.13
2018-07-10T21:32:30.209Z,21.11
2018-07-10T21:35:02.442Z,21.09
2018-07-10T21:37:42.190Z,21.07
2018-07-10T21:40:33.071Z,21.03
2018-07-10T21:43:15.353Z,20.99
2018-07-10T21:46:54.809Z,20.95
2018-07-10T21:49:56.757Z,20.84
2018-07-10T21:52:25.677Z,20.76
2018-07-10T21:54:54.345Z,20.71
2018-07-10T21:57:26.528Z,20.60
2018-07-10T21:59:57.382Z,20.50
2018-07-10T22:02:25.885Z,20.45
2018-07-10T22:04:57.346Z,20.38
2018-07-10T22:07:29.626Z,20.38
2018-07-10T22:10:07.189Z,20.40
2018-07-10T22:12:46.478Z,20.38
2018-07-10T22:15:15.509Z,20.34
2018-07-10T22:17:44.409Z,20.28
2018-07-10T22:20:13.042Z,20.28
2018-07-10T22:22:41.865Z,20.27
2018-07-10T22:25:10.702Z,20.21
2018-07-10T22:27:40.369Z,20.12
2018-07-10T22:30:16.689Z,20.02
2018-07-10T22:32:50.501Z,19.93
2018-07-10T22:35:19.423Z,19.89
2018-07-10T22:37:48.274Z,19.84
2018-07-10T22:40:18.349Z,19.87
2018-07-10T22:42:47.108Z,19.95
2018-07-10T22:45:16.790Z,19.96
2018-07-10T22:47:46.006Z,19.91
2018-07-10T22:50:18.873Z,19.91
2018-07-10T22:52:52.883Z,19.81
2018-07-10T22:55:26.299Z,19.72
2018-07-10T22:57:58.601Z,19.66
2018-07-10T23:00:30.952Z,19.61
2018-07-10T23:03:00.945Z,19.55
2018-07-10T23:05:29.857Z,19.53
2018-07-10T23:07:58.851Z,19.57
2018-07-10T23:10:27.913Z,19.54
2018-07-10T23:12:57.417Z,19.42
2018-07-10T23:15:26.155Z,19.32
2018-07-10T23:17:54.890Z,19.27
2018-07-10T23:20:24.374Z,19.19
2018-07-10T23:22:56.017Z,19.12
2018-07-10T23:25:27.153Z,19.06
2018-07-10T23:28:06.454Z,19.00
2018-07-10T23:30:37.673Z,18.99
2018-07-10T23:33:10.943Z,19.05
2018-07-10T23:35:41.991Z,19.03
2018-07-10T23:38:16.114Z,18.93
2018-07-10T23:40:45.140Z,18.88
2018-07-10T23:43:13.664Z,18.78
2018-07-10T23:45:42.533Z,18.68
2018-07-10T23:48:11.411Z,18.63
2018-07-10T23:50:40.279Z,18.55
2018-07-10T23:54:14.714Z,18.48
2018-07-10T23:56:43.493Z,18.44
2018-07-10T23:59:11.974Z,18.47
